createdAt,value
2018-03-17T00:00:35.891Z,838.81
2018-03-17T00:01:35.757Z,838.84
2018-03-17T00:02:35.632Z,838.81
2018-03-17T00:03:35.498Z,838.83
2018-03-17T00:04:35.364Z,838.82
2018-03-17T00:05:35.239Z,838.79
2018-03-17T00:06:35.106Z,838.72
2018-03-17T00:07:34.973Z,838.69
2018-03-17T00:08:34.844Z,838.73
2018-03-17T00:09:34.718Z,838.73
2018-03-17T00:10:34.582Z,838.76
2018-03-17T00:11:34.453Z,838.75
2018-03-17T00:12:34.328Z,838.72
2018-03-17T00:13:34.193Z,838.70
2018-03-17T00:14:36.245Z,838.72
2018-03-17T00:15:33.938Z,838.71
2018-03-17T00:16:33.803Z,838.73
2018-03-17T00:17:33.674Z,838.68
2018-03-17T00:18:33.548Z,838.65
2018-03-17T00:19:33.411Z,838.64
2018-03-17T00:20:33.286Z,838.63
2018-03-17T00:21:33.154Z,838.58
2018-03-17T00:22:33.024Z,838.55
2018-03-17T00:23:32.889Z,838.55
2018-03-17T00:24:32.766Z,838.57
2018-03-17T00:25:32.636Z,838.56
2018-03-17T00:26:32.503Z,838.51
2018-03-17T00:27:32.374Z,838.49
2018-03-17T00:28:32.249Z,838.51
2018-03-17T00:29:32.116Z,838.49
2018-03-17T00:30:31.983Z,838.53
2018-03-17T00:31:31.855Z,838.50
2018-03-17T00:32:31.731Z,838.50
2018-03-17T00:33:31.590Z,838.51
2018-03-17T00:34:31.464Z,838.51
2018-03-17T00:35:31.332Z,838.54
2018-03-17T00:36:31.201Z,838.55
2018-03-17T00:37:31.072Z,838.53
2018-03-17T00:38:30.946Z,838.49
2018-03-17T00:39:30.812Z,838.53
2018-03-17T00:40:30.682Z,838.50
2018-03-17T00:41:30.555Z,838.48
2018-03-17T00:42:30.425Z,838.47
2018-03-17T00:43:30.290Z,838.48
2018-03-17T00:44:30.164Z,838.46
2018-03-17T00:45:30.034Z,838.43
2018-03-17T00:46:29.903Z,838.46
2018-03-17T00:47:29.773Z,838.45
2018-03-17T00:48:29.641Z,838.42
2018-03-17T00:49:29.511Z,838.44
2018-03-17T00:50:29.383Z,838.44
2018-03-17T00:51:29.250Z,838.42
2018-03-17T00:52:29.122Z,838.42
2018-03-17T00:53:28.993Z,838.39
2018-03-17T00:54:28.864Z,838.38
2018-03-17T00:55:28.730Z,838.34
2018-03-17T00:56:28.601Z,838.31
2018-03-17T00:57:28.473Z,838.27
2018-03-17T00:58:28.340Z,838.25
2018-03-17T00:59:28.213Z,838.23
2018-03-17T01:00:28.138Z,838.21
2018-03-17T01:01:27.953Z,838.19
2018-03-17T01:02:27.824Z,838.22
2018-03-17T01:03:27.694Z,838.21
2018-03-17T01:04:27.564Z,838.14
2018-03-17T01:05:27.432Z,838.13
2018-03-17T01:06:27.301Z,838.08
2018-03-17T01:07:27.170Z,838.04
2018-03-17T01:08:27.062Z,838.06
2018-03-17T01:09:26.912Z,838.03
2018-03-17T01:10:26.782Z,838.00
2018-03-17T01:11:26.651Z,837.98
2018-03-17T01:12:26.524Z,837.90
2018-03-17T01:13:26.393Z,837.87
2018-03-17T01:14:26.270Z,837.86
2018-03-17T01:15:26.134Z,837.83
2018-03-17T01:16:26.007Z,837.83
2018-03-17T01:17:25.875Z,837.81
2018-03-17T01:18:25.748Z,837.75
2018-03-17T01:19:25.614Z,837.74
2018-03-17T01:20:25.487Z,837.71
2018-03-17T01:21:25.356Z,837.76
2018-03-17T01:22:25.228Z,837.72
2018-03-17T01:23:25.098Z,837.74
2018-03-17T01:24:24.987Z,837.69
2018-03-17T01:25:24.835Z,837.73
2018-03-17T01:26:24.707Z,837.73
2018-03-17T01:27:24.577Z,837.73
2018-03-17T01:28:24.449Z,837.70
2018-03-17T01:29:24.317Z,837.69
2018-03-17T01:30:24.192Z,837.67
2018-03-17T01:31:24.056Z,837.61
2018-03-17T01:32:23.927Z,837.60
2018-03-17T01:33:23.795Z,837.58
2018-03-17T01:34:23.666Z,837.57
2018-03-17T01:35:23.532Z,837.56
2018-03-17T01:36:23.407Z,837.57
2018-03-17T01:37:23.274Z,837.55
2018-03-17T01:38:23.143Z,837.52
2018-03-17T01:39:23.012Z,837.53
2018-03-17T01:40:22.889Z,837.52
2018-03-17T01:41:22.750Z,837.53
2018-03-17T01:42:22.619Z,837.56
2018-03-17T01:43:22.489Z,837.58
2018-03-17T01:44:22.366Z,837.56
2018-03-17T01:45:22.233Z,837.58
2018-03-17T01:46:22.102Z,837.52
2018-03-17T01:47:21.970Z,837.54
2018-03-17T01:48:21.840Z,837.53
2018-03-17T01:49:21.712Z,837.50
2018-03-17T01:50:21.579Z,837.46
2018-03-17T01:51:21.461Z,837.45
2018-03-17T01:52:21.317Z,837.44
2018-03-17T01:53:21.187Z,837.45
2018-03-17T01:54:21.057Z,837.41
2018-03-17T01:55:20.926Z,837.39
2018-03-17T01:56:20.796Z,837.36
2018-03-17T01:57:20.670Z,837.34
2018-03-17T01:58:20.534Z,837.32
2018-03-17T01:59:20.405Z,837.34
2018-03-17T02:00:20.278Z,837.33
2018-03-17T02:01:20.148Z,837.31
2018-03-17T02:02:20.018Z,837.26
2018-03-17T02:03:19.886Z,837.20
2018-03-17T02:04:19.760Z,837.22
2018-03-17T02:05:19.625Z,837.21
2018-03-17T02:06:19.498Z,837.18
2018-03-17T02:07:19.370Z,837.18
2018-03-17T02:08:19.237Z,837.11
2018-03-17T02:09:19.108Z,837.08
2018-03-17T02:10:18.980Z,837.07
2018-03-17T02:11:18.848Z,837.05
2018-03-17T02:12:18.723Z,837.01
2018-03-17T02:13:18.585Z,837.06
2018-03-17T02:14:18.454Z,837.04
2018-03-17T02:15:18.327Z,837.03
2018-03-17T02:16:18.196Z,837.03
2018-03-17T02:17:18.066Z,837.03
2018-03-17T02:18:17.944Z,837.02
2018-03-17T02:19:17.804Z,837.02
2018-03-17T02:20:17.673Z,837.01
2018-03-17T02:21:17.551Z,836.95
2018-03-17T02:22:17.470Z,836.93
2018-03-17T02:23:17.285Z,836.85
2018-03-17T02:24:17.155Z,836.84
2018-03-17T02:25:17.027Z,836.81
2018-03-17T02:26:16.896Z,836.76
2018-03-17T02:27:16.763Z,836.78
2018-03-17T02:28:16.651Z,836.72
2018-03-17T02:29:16.504Z,836.73
2018-03-17T02:30:16.388Z,836.69
2018-03-17T02:31:16.250Z,836.63
2018-03-17T02:32:16.114Z,836.59
2018-03-17T02:33:15.987Z,836.57
2018-03-17T02:34:15.853Z,836.60
2018-03-17T02:35:15.722Z,836.61
2018-03-17T02:36:15.590Z,836.61
2018-03-17T02:37:15.460Z,836.59
2018-03-17T02:38:15.343Z,836.58
2018-03-17T02:39:15.199Z,836.56
2018-03-17T02:40:15.069Z,836.55
2018-03-17T02:41:14.938Z,836.50
2018-03-17T02:42:14.812Z,836.51
2018-03-17T02:43:14.677Z,836.52
2018-03-17T02:44:14.546Z,836.53
2018-03-17T02:45:14.417Z,836.55
2018-03-17T02:46:14.303Z,836.50
2018-03-17T02:47:14.156Z,836.48
2018-03-17T02:48:14.030Z,836.46
2018-03-17T02:49:13.895Z,836.49
2018-03-17T02:50:13.764Z,836.47
2018-03-17T02:51:13.635Z,836.49
2018-03-17T02:52:13.503Z,836.47
2018-03-17T02:53:13.375Z,836.43
2018-03-17T02:54:13.249Z,836.41
2018-03-17T02:55:13.123Z,836.37
2018-03-17T02:56:12.991Z,836.37
2018-03-17T02:57:12.854Z,836.36
2018-03-17T02:58:12.730Z,836.33
2018-03-17T02:59:12.596Z,836.33
2018-03-17T03:00:12.462Z,836.29
2018-03-17T03:01:12.335Z,836.30
2018-03-17T03:02:12.203Z,836.27
2018-03-17T03:03:12.070Z,836.29
2018-03-17T03:04:11.950Z,836.27
2018-03-17T03:05:11.817Z,836.26
2018-03-17T03:06:11.683Z,836.26
2018-03-17T03:07:11.554Z,836.23
2018-03-17T03:08:11.422Z,836.24
2018-03-17T03:09:11.393Z,836.23
2018-03-17T03:10:11.164Z,836.20
2018-03-17T03:11:11.031Z,836.18
2018-03-17T03:12:10.904Z,836.13
2018-03-17T03:13:10.767Z,836.14
2018-03-17T03:14:10.641Z,836.11
2018-03-17T03:15:10.510Z,836.09
2018-03-17T03:16:10.389Z,836.09
2018-03-17T03:17:10.249Z,836.06
2018-03-17T03:18:10.122Z,836.04
2018-03-17T03:19:09.998Z,836.03
2018-03-17T03:20:09.856Z,836.00
2018-03-17T03:21:09.727Z,836.02
2018-03-17T03:22:09.601Z,836.00
2018-03-17T03:23:09.466Z,836.03
2018-03-17T03:24:09.337Z,835.99
2018-03-17T03:25:09.208Z,836.03
2018-03-17T03:26:09.079Z,836.03
2018-03-17T03:27:08.945Z,836.01
2018-03-17T03:28:08.815Z,836.05
2018-03-17T03:29:08.685Z,836.04
2018-03-17T03:30:08.556Z,836.04
2018-03-17T03:31:08.427Z,836.03
2018-03-17T03:32:08.293Z,836.05
2018-03-17T03:33:08.164Z,836.05
2018-03-17T03:34:08.031Z,836.06
2018-03-17T03:35:07.920Z,836.05
2018-03-17T03:36:07.773Z,836.08
2018-03-17T03:37:07.643Z,836.03
2018-03-17T03:38:07.510Z,836.02
2018-03-17T03:39:07.378Z,836.02
2018-03-17T03:40:07.248Z,835.98
2018-03-17T03:41:07.120Z,835.99
2018-03-17T03:42:06.989Z,835.93
2018-03-17T03:43:06.862Z,835.95
2018-03-17T03:44:06.726Z,835.90
2018-03-17T03:45:06.595Z,835.92
2018-03-17T03:46:06.473Z,835.91
2018-03-17T03:47:06.349Z,835.90
2018-03-17T03:48:06.237Z,835.93
2018-03-17T03:49:06.076Z,835.92
2018-03-17T03:50:05.949Z,835.92
2018-03-17T03:51:05.815Z,835.91
2018-03-17T03:52:05.687Z,835.90
2018-03-17T03:53:05.552Z,835.84
2018-03-17T03:54:05.421Z,835.84
2018-03-17T03:55:05.296Z,835.83
2018-03-17T03:56:05.160Z,835.82
2018-03-17T03:57:05.032Z,835.83
2018-03-17T03:58:04.916Z,835.79
2018-03-17T03:59:04.770Z,835.81
2018-03-17T04:00:04.644Z,835.81
2018-03-17T04:01:04.516Z,835.80
2018-03-17T04:02:04.379Z,835.81
2018-03-17T04:03:04.249Z,835.79
2018-03-17T04:04:04.121Z,835.82
2018-03-17T04:05:03.987Z,835.81
2018-03-17T04:06:03.857Z,835.77
2018-03-17T04:07:03.729Z,835.74
2018-03-17T04:08:03.596Z,835.76
2018-03-17T04:09:03.466Z,835.73
2018-03-17T04:10:03.341Z,835.73
2018-03-17T04:11:03.205Z,835.74
2018-03-17T04:12:03.074Z,835.73
2018-03-17T04:13:02.943Z,835.73
2018-03-17T04:14:02.812Z,835.73
2018-03-17T04:15:02.681Z,835.74
2018-03-17T04:16:02.554Z,835.78
2018-03-17T04:17:02.422Z,835.74
2018-03-17T04:18:02.314Z,835.72
2018-03-17T04:19:02.165Z,835.75
2018-03-17T04:20:02.036Z,835.73
2018-03-17T04:21:01.904Z,835.68
2018-03-17T04:22:01.810Z,835.72
2018-03-17T04:23:01.640Z,835.67
2018-03-17T04:24:01.519Z,835.68
2018-03-17T04:25:01.388Z,835.64
2018-03-17T04:26:01.252Z,835.64
2018-03-17T04:27:01.121Z,835.63
2018-03-17T04:28:00.989Z,835.62
2018-03-17T04:29:00.855Z,835.60
2018-03-17T04:30:00.726Z,835.63
2018-03-17T04:31:00.595Z,835.64
2018-03-17T04:32:00.464Z,835.61
2018-03-17T04:33:00.340Z,835.62
2018-03-17T04:34:00.203Z,835.62
2018-03-17T04:35:00.074Z,835.60
2018-03-17T04:35:59.942Z,835.60
2018-03-17T04:36:59.816Z,835.58
2018-03-17T04:37:59.683Z,835.59
2018-03-17T04:38:59.553Z,835.58
2018-03-17T04:39:59.420Z,835.57
2018-03-17T04:40:59.292Z,835.55
2018-03-17T04:41:59.159Z,835.57
2018-03-17T04:42:59.025Z,835.54
2018-03-17T04:43:58.902Z,835.53
2018-03-17T04:44:58.770Z,835.54
2018-03-17T04:45:58.636Z,835.49
2018-03-17T04:46:58.508Z,835.44
2018-03-17T04:47:58.377Z,835.46
2018-03-17T04:48:58.248Z,835.45
2018-03-17T04:49:58.142Z,835.43
2018-03-17T04:50:57.987Z,835.40
2018-03-17T04:51:57.854Z,835.35
2018-03-17T04:52:57.730Z,835.38
2018-03-17T04:53:57.597Z,835.39
2018-03-17T04:54:57.463Z,835.36
2018-03-17T04:55:57.333Z,835.33
2018-03-17T04:56:57.202Z,835.33
2018-03-17T04:57:57.073Z,835.31
2018-03-17T04:58:56.937Z,835.34
2018-03-17T04:59:56.870Z,835.31
2018-03-17T05:00:56.680Z,835.35
2018-03-17T05:01:56.553Z,835.34
2018-03-17T05:02:56.423Z,835.30
2018-03-17T05:03:56.290Z,835.30
2018-03-17T05:04:56.162Z,835.28
2018-03-17T05:05:56.031Z,835.26
2018-03-17T05:06:55.904Z,835.26
2018-03-17T05:07:55.773Z,835.24
2018-03-17T05:08:55.651Z,835.24
2018-03-17T05:09:55.522Z,835.23
2018-03-17T05:10:55.383Z,835.18
2018-03-17T05:11:55.251Z,835.18
2018-03-17T05:12:55.120Z,835.14
2018-03-17T05:13:54.990Z,835.14
2018-03-17T05:14:54.861Z,835.13
2018-03-17T05:15:54.729Z,835.12
2018-03-17T05:16:54.600Z,835.09
2018-03-17T05:17:54.469Z,835.10
2018-03-17T05:18:54.340Z,835.05
2018-03-17T05:19:54.209Z,835.06
2018-03-17T05:20:54.079Z,835.05
2018-03-17T05:21:53.950Z,835.03
2018-03-17T05:22:53.824Z,835.01
2018-03-17T05:23:53.689Z,835.00
2018-03-17T05:24:53.560Z,834.95
2018-03-17T05:25:53.428Z,834.92
2018-03-17T05:26:53.297Z,834.93
2018-03-17T05:27:53.166Z,834.91
2018-03-17T05:28:53.038Z,834.87
2018-03-17T05:29:52.907Z,834.88
2018-03-17T05:30:52.783Z,834.87
2018-03-17T05:31:52.653Z,834.84
2018-03-17T05:32:52.512Z,834.85
2018-03-17T05:33:52.384Z,834.87
2018-03-17T05:34:52.257Z,834.81
2018-03-17T05:35:52.122Z,834.82
2018-03-17T05:36:51.990Z,834.78
2018-03-17T05:37:51.862Z,834.79
2018-03-17T05:38:51.728Z,834.76
2018-03-17T05:39:51.600Z,834.74
2018-03-17T05:40:51.469Z,834.74
2018-03-17T05:41:51.338Z,834.74
2018-03-17T05:42:51.206Z,834.71
2018-03-17T05:43:51.077Z,834.71
2018-03-17T05:44:50.945Z,834.67
2018-03-17T05:45:50.818Z,834.70
2018-03-17T05:46:50.687Z,834.71
2018-03-17T05:47:50.558Z,834.67
2018-03-17T05:48:50.425Z,834.65
2018-03-17T05:49:50.302Z,834.60
2018-03-17T05:50:50.163Z,834.56
2018-03-17T05:51:50.038Z,834.58
2018-03-17T05:52:49.904Z,834.54
2018-03-17T05:53:49.772Z,834.57
2018-03-17T05:54:49.645Z,834.51
2018-03-17T05:55:49.514Z,834.49
2018-03-17T05:56:49.382Z,834.56
2018-03-17T05:57:49.253Z,834.54
2018-03-17T05:58:49.125Z,834.50
2018-03-17T05:59:48.994Z,834.50
2018-03-17T06:00:48.863Z,834.48
2018-03-17T06:01:48.739Z,834.50
2018-03-17T06:02:48.606Z,834.50
2018-03-17T06:03:48.472Z,834.50
2018-03-17T06:04:48.345Z,834.46
2018-03-17T06:05:48.218Z,834.48
2018-03-17T06:06:48.081Z,834.46
2018-03-17T06:07:47.960Z,834.45
2018-03-17T06:08:47.821Z,834.43
2018-03-17T06:09:47.693Z,834.43
2018-03-17T06:10:47.568Z,834.42
2018-03-17T06:11:47.431Z,834.37
2018-03-17T06:12:47.306Z,834.33
2018-03-17T06:13:47.171Z,834.34
2018-03-17T06:14:47.040Z,834.30
2018-03-17T06:15:46.915Z,834.32
2018-03-17T06:16:46.788Z,834.26
2018-03-17T06:17:46.653Z,834.27
2018-03-17T06:18:46.522Z,834.27
2018-03-17T06:19:46.391Z,834.27
2018-03-17T06:20:46.264Z,834.27
2018-03-17T06:21:46.136Z,834.23
2018-03-17T06:22:46.000Z,834.23
2018-03-17T06:23:45.871Z,834.22
2018-03-17T06:24:45.743Z,834.21
2018-03-17T06:25:45.633Z,834.18
2018-03-17T06:26:45.480Z,834.15
2018-03-17T06:27:45.352Z,834.13
2018-03-17T06:28:45.220Z,834.13
2018-03-17T06:29:45.091Z,834.14
2018-03-17T06:30:45.020Z,834.10
2018-03-17T06:31:44.830Z,834.07
2018-03-17T06:32:44.701Z,834.07
2018-03-17T06:33:44.571Z,834.05
2018-03-17T06:34:44.439Z,834.07
2018-03-17T06:35:44.309Z,834.02
2018-03-17T06:36:44.178Z,834.00
2018-03-17T06:37:44.049Z,833.98
2018-03-17T06:38:43.917Z,833.98
2018-03-17T06:39:43.788Z,833.97
2018-03-17T06:40:43.658Z,834.01
2018-03-17T06:41:43.529Z,833.95
2018-03-17T06:42:43.401Z,833.97
2018-03-17T06:43:43.269Z,833.95
2018-03-17T06:44:43.147Z,833.98
2018-03-17T06:45:43.058Z,833.87
2018-03-17T06:46:42.877Z,833.86
2018-03-17T06:47:42.749Z,833.86
2018-03-17T06:48:42.622Z,833.85
2018-03-17T06:49:42.489Z,833.87
2018-03-17T06:50:42.357Z,833.85
2018-03-17T06:51:42.230Z,833.87
2018-03-17T06:52:42.100Z,833.86
2018-03-17T06:53:41.969Z,833.85
2018-03-17T06:54:41.842Z,833.85
2018-03-17T06:55:41.717Z,833.86
2018-03-17T06:56:41.584Z,833.85
2018-03-17T06:57:41.454Z,833.87
2018-03-17T06:58:41.326Z,833.87
2018-03-17T06:59:41.198Z,833.85
2018-03-17T07:00:41.067Z,833.81
2018-03-17T07:01:40.936Z,833.81
2018-03-17T07:02:40.809Z,833.78
2018-03-17T07:03:40.680Z,833.83
2018-03-17T07:04:40.546Z,833.80
2018-03-17T07:05:40.419Z,833.80
2018-03-17T07:06:40.294Z,833.79
2018-03-17T07:07:40.168Z,833.81
2018-03-17T07:08:40.037Z,833.80
2018-03-17T07:09:39.902Z,833.83
2018-03-17T07:10:39.770Z,833.80
2018-03-17T07:11:39.643Z,833.80
2018-03-17T07:12:39.524Z,833.78
2018-03-17T07:13:39.386Z,833.76
2018-03-17T07:14:39.259Z,833.74
2018-03-17T07:15:39.129Z,833.75
2018-03-17T07:16:38.997Z,833.73
2018-03-17T07:17:38.872Z,833.74
2018-03-17T07:18:38.739Z,833.71
2018-03-17T07:19:38.611Z,833.75
2018-03-17T07:20:38.479Z,833.68
2018-03-17T07:21:38.357Z,833.68
2018-03-17T07:22:38.226Z,833.70
2018-03-17T07:23:38.098Z,833.68
2018-03-17T07:24:37.969Z,833.69
2018-03-17T07:25:37.835Z,833.66
2018-03-17T07:26:37.710Z,833.67
2018-03-17T07:27:37.579Z,833.70
2018-03-17T07:28:37.454Z,833.68
2018-03-17T07:29:37.320Z,833.67
2018-03-17T07:30:37.194Z,833.64
2018-03-17T07:31:37.061Z,833.64
2018-03-17T07:32:36.933Z,833.61
2018-03-17T07:33:38.342Z,833.61
2018-03-17T07:34:36.677Z,833.58
2018-03-17T07:35:36.549Z,833.57
2018-03-17T07:36:36.419Z,833.60
2018-03-17T07:37:36.291Z,833.57
2018-03-17T07:38:36.163Z,833.56
2018-03-17T07:39:36.032Z,833.58
2018-03-17T07:40:35.906Z,833.58
2018-03-17T07:41:35.777Z,833.58
2018-03-17T07:42:35.649Z,833.58
2018-03-17T07:43:35.518Z,833.57
2018-03-17T07:44:35.388Z,833.53
2018-03-17T07:45:35.259Z,833.50
2018-03-17T07:46:35.131Z,833.54
2018-03-17T07:47:35.007Z,833.49
2018-03-17T07:48:34.878Z,833.53
2018-03-17T07:49:34.753Z,833.48
2018-03-17T07:50:34.619Z,833.50
2018-03-17T07:51:34.493Z,833.49
2018-03-17T07:52:34.363Z,833.48
2018-03-17T07:53:34.234Z,833.45
2018-03-17T07:54:34.103Z,833.46
2018-03-17T07:55:33.976Z,833.42
2018-03-17T07:56:33.847Z,833.45
2018-03-17T07:57:33.722Z,833.43
2018-03-17T07:58:33.592Z,833.43
2018-03-17T07:59:33.463Z,833.44
2018-03-17T08:00:33.335Z,833.40
2018-03-17T08:01:33.205Z,833.36
2018-03-17T08:02:33.077Z,833.39
2018-03-17T08:03:32.952Z,833.38
2018-03-17T08:04:32.818Z,833.40
2018-03-17T08:05:32.695Z,833.37
2018-03-17T08:06:32.562Z,833.39
2018-03-17T08:07:32.437Z,833.37
2018-03-17T08:08:32.318Z,833.34
2018-03-17T08:09:32.183Z,833.34
2018-03-17T08:10:32.051Z,833.33
2018-03-17T08:11:31.923Z,833.28
2018-03-17T08:12:31.823Z,833.26
2018-03-17T08:13:31.671Z,833.28
2018-03-17T08:14:31.847Z,833.24
2018-03-17T08:15:31.412Z,833.22
2018-03-17T08:16:31.383Z,833.22
2018-03-17T08:17:31.155Z,833.23
2018-03-17T08:18:31.030Z,833.22
2018-03-17T08:19:30.901Z,833.22
2018-03-17T08:20:30.773Z,833.24
2018-03-17T08:21:30.648Z,833.24
2018-03-17T08:22:30.542Z,833.21
2018-03-17T08:23:30.388Z,833.21
2018-03-17T08:24:30.262Z,833.18
2018-03-17T08:25:30.134Z,833.17
2018-03-17T08:26:30.005Z,833.17
2018-03-17T08:27:29.878Z,833.12
2018-03-17T08:28:29.748Z,833.13
2018-03-17T08:29:29.620Z,833.13
2018-03-17T08:30:29.500Z,833.09
2018-03-17T08:31:29.368Z,833.09
2018-03-17T08:32:29.238Z,833.04
2018-03-17T08:33:29.112Z,833.00
2018-03-17T08:34:28.983Z,832.99
2018-03-17T08:35:28.856Z,833.01
2018-03-17T08:36:28.728Z,832.97
2018-03-17T08:37:28.599Z,832.96
2018-03-17T08:38:28.476Z,832.95
2018-03-17T08:39:28.356Z,832.93
2018-03-17T08:40:28.219Z,832.94
2018-03-17T08:41:28.092Z,832.91
2018-03-17T08:42:27.962Z,832.92
2018-03-17T08:43:27.834Z,832.89
2018-03-17T08:44:27.706Z,832.91
2018-03-17T08:45:27.582Z,832.88
2018-03-17T08:46:27.452Z,832.90
2018-03-17T08:47:27.324Z,832.89
2018-03-17T08:48:27.195Z,832.88
2018-03-17T08:49:27.069Z,832.91
2018-03-17T08:50:26.944Z,832.88
2018-03-17T08:51:26.816Z,832.89
2018-03-17T08:52:26.686Z,832.87
2018-03-17T08:53:26.560Z,832.86
2018-03-17T08:54:26.432Z,832.86
2018-03-17T08:55:26.308Z,832.81
2018-03-17T08:56:26.177Z,832.82
2018-03-17T08:57:26.051Z,832.80
2018-03-17T08:58:25.920Z,832.80
2018-03-17T08:59:25.793Z,832.82
2018-03-17T09:00:25.666Z,832.83
2018-03-17T09:01:25.538Z,832.82
2018-03-17T09:02:25.410Z,832.81
2018-03-17T09:03:25.295Z,832.78
2018-03-17T09:04:25.154Z,832.74
2018-03-17T09:05:25.038Z,832.74
2018-03-17T09:06:24.903Z,832.76
2018-03-17T09:07:24.774Z,832.74
2018-03-17T09:08:24.648Z,832.73
2018-03-17T09:09:24.519Z,832.71
2018-03-17T09:10:24.388Z,832.72
2018-03-17T09:11:24.264Z,832.73
2018-03-17T09:12:24.134Z,832.72
2018-03-17T09:13:24.009Z,832.71
2018-03-17T09:14:23.878Z,832.72
2018-03-17T09:15:23.751Z,832.70
2018-03-17T09:16:23.624Z,832.68
2018-03-17T09:17:23.493Z,832.69
2018-03-17T09:18:23.372Z,832.68
2018-03-17T09:19:23.239Z,832.74
2018-03-17T09:20:23.113Z,832.69
2018-03-17T09:21:22.985Z,832.70
2018-03-17T09:22:22.863Z,832.68
2018-03-17T09:23:22.727Z,832.65
2018-03-17T09:24:22.646Z,832.67
2018-03-17T09:25:22.475Z,832.70
2018-03-17T09:26:22.345Z,832.64
2018-03-17T09:27:22.218Z,832.65
2018-03-17T09:28:22.093Z,832.65
2018-03-17T09:29:21.962Z,832.67
2018-03-17T09:30:21.835Z,832.65
2018-03-17T09:31:21.707Z,832.67
2018-03-17T09:32:21.579Z,832.62
2018-03-17T09:33:21.452Z,832.64
2018-03-17T09:34:21.323Z,832.64
2018-03-17T09:35:21.195Z,832.64
2018-03-17T09:36:21.069Z,832.63
2018-03-17T09:37:20.940Z,832.62
2018-03-17T09:38:20.813Z,832.58
2018-03-17T09:39:20.683Z,832.58
2018-03-17T09:40:20.559Z,832.58
2018-03-17T09:41:20.435Z,832.59
2018-03-17T09:42:20.300Z,832.58
2018-03-17T09:43:20.173Z,832.60
2018-03-17T09:44:20.046Z,832.57
2018-03-17T09:45:19.918Z,832.55
2018-03-17T09:46:19.790Z,832.54
2018-03-17T09:47:19.664Z,832.56
2018-03-17T09:48:19.535Z,832.56
2018-03-17T09:49:19.410Z,832.52
2018-03-17T09:50:19.281Z,832.51
2018-03-17T09:51:19.153Z,832.52
2018-03-17T09:52:19.026Z,832.54
2018-03-17T09:53:18.900Z,832.54
2018-03-17T09:54:18.770Z,832.56
2018-03-17T09:55:18.646Z,832.56
2018-03-17T09:56:18.518Z,832.52
2018-03-17T09:57:18.390Z,832.49
2018-03-17T09:58:18.279Z,832.52
2018-03-17T09:59:18.132Z,832.51
2018-03-17T10:00:18.005Z,832.52
2018-03-17T10:01:17.882Z,832.48
2018-03-17T10:02:17.756Z,832.46
2018-03-17T10:03:17.624Z,832.44
2018-03-17T10:04:17.498Z,832.45
2018-03-17T10:05:17.369Z,832.45
2018-03-17T10:06:17.250Z,832.47
2018-03-17T10:07:17.115Z,832.48
2018-03-17T10:08:17.022Z,832.48
2018-03-17T10:09:16.883Z,832.46
2018-03-17T10:10:16.733Z,832.45
2018-03-17T10:11:16.607Z,832.41
2018-03-17T10:12:16.478Z,832.45
2018-03-17T10:13:16.352Z,832.43
2018-03-17T10:14:16.224Z,832.39
2018-03-17T10:15:16.097Z,832.40
2018-03-17T10:16:15.974Z,832.41
2018-03-17T10:17:15.846Z,832.37
2018-03-17T10:18:15.719Z,832.39
2018-03-17T10:19:15.590Z,832.36
2018-03-17T10:20:15.466Z,832.32
2018-03-17T10:21:15.335Z,832.34
2018-03-17T10:22:15.208Z,832.32
2018-03-17T10:23:15.081Z,832.34
2018-03-17T10:24:14.954Z,832.31
2018-03-17T10:25:14.831Z,832.33
2018-03-17T10:26:14.698Z,832.35
2018-03-17T10:27:14.573Z,832.30
2018-03-17T10:28:14.443Z,832.28
2018-03-17T10:29:14.320Z,832.36
2018-03-17T10:30:14.192Z,832.30
2018-03-17T10:31:14.064Z,832.30
2018-03-17T10:32:13.937Z,832.31
2018-03-17T10:33:13.812Z,832.30
2018-03-17T10:34:13.683Z,832.28
2018-03-17T10:35:13.556Z,832.21
2018-03-17T10:36:13.432Z,832.23
2018-03-17T10:37:13.309Z,832.18
2018-03-17T10:38:13.176Z,832.16
2018-03-17T10:39:13.047Z,832.13
2018-03-17T10:40:12.921Z,832.14
2018-03-17T10:41:12.796Z,832.12
2018-03-17T10:42:12.718Z,832.10
2018-03-17T10:43:12.542Z,832.11
2018-03-17T10:44:12.414Z,832.10
2018-03-17T10:45:12.285Z,832.05
2018-03-17T10:46:12.162Z,832.08
2018-03-17T10:47:12.032Z,832.01
2018-03-17T10:48:11.910Z,832.00
2018-03-17T10:49:11.778Z,832.00
2018-03-17T10:50:11.651Z,831.96
2018-03-17T10:51:11.538Z,831.98
2018-03-17T10:52:11.398Z,831.97
2018-03-17T10:53:11.271Z,831.94
2018-03-17T10:54:11.142Z,831.94
2018-03-17T10:55:11.019Z,831.93
2018-03-17T10:56:10.890Z,831.96
2018-03-17T10:57:10.764Z,831.93
2018-03-17T10:58:10.637Z,831.92
2018-03-17T10:59:10.512Z,831.88
2018-03-17T11:00:10.398Z,831.89
2018-03-17T11:01:10.260Z,831.87
2018-03-17T11:02:10.129Z,831.84
2018-03-17T11:03:10.006Z,831.84
2018-03-17T11:04:09.885Z,831.86
2018-03-17T11:05:09.754Z,831.83
2018-03-17T11:06:09.666Z,831.80
2018-03-17T11:07:09.500Z,831.80
2018-03-17T11:08:09.374Z,831.82
2018-03-17T11:09:09.248Z,831.81
2018-03-17T11:10:09.122Z,831.80
2018-03-17T11:11:08.997Z,831.77
2018-03-17T11:12:08.870Z,831.73
2018-03-17T11:13:08.744Z,831.74
2018-03-17T11:14:08.619Z,831.71
2018-03-17T11:15:08.498Z,831.67
2018-03-17T11:16:08.366Z,831.68
2018-03-17T11:17:08.240Z,831.69
2018-03-17T11:18:08.113Z,831.70
2018-03-17T11:19:07.987Z,831.64
2018-03-17T11:20:07.861Z,831.61
2018-03-17T11:21:07.735Z,831.61
2018-03-17T11:22:07.608Z,831.60
2018-03-17T11:23:07.482Z,831.63
2018-03-17T11:24:07.357Z,831.61
2018-03-17T11:25:07.248Z,831.64
2018-03-17T11:26:07.106Z,831.64
2018-03-17T11:27:07.006Z,831.58
2018-03-17T11:28:06.854Z,831.56
2018-03-17T11:29:06.728Z,831.59
2018-03-17T11:30:06.604Z,831.58
2018-03-17T11:31:06.480Z,831.60
2018-03-17T11:32:06.352Z,831.59
2018-03-17T11:33:06.226Z,831.56
2018-03-17T11:34:06.103Z,831.56
2018-03-17T11:35:05.976Z,831.52
2018-03-17T11:36:05.852Z,831.53
2018-03-17T11:37:05.720Z,831.53
2018-03-17T11:38:05.595Z,831.48
2018-03-17T11:39:05.469Z,831.48
2018-03-17T11:40:05.342Z,831.49
2018-03-17T11:41:05.223Z,831.51
2018-03-17T11:42:05.095Z,831.46
2018-03-17T11:43:04.959Z,831.40
2018-03-17T11:44:04.833Z,831.38
2018-03-17T11:45:04.871Z,831.38
2018-03-17T11:46:04.583Z,831.40
2018-03-17T11:47:04.451Z,831.34
2018-03-17T11:48:04.350Z,831.33
2018-03-17T11:49:04.199Z,831.29
2018-03-17T11:50:04.069Z,831.30
2018-03-17T11:51:03.943Z,831.26
2018-03-17T11:52:03.821Z,831.24
2018-03-17T11:53:03.690Z,831.27
2018-03-17T11:54:03.563Z,831.21
2018-03-17T11:55:03.439Z,831.20
2018-03-17T11:56:03.310Z,831.19
2018-03-17T11:57:03.187Z,831.18
2018-03-17T11:58:03.168Z,831.18
2018-03-17T11:59:02.995Z,831.22
2018-03-17T12:00:02.804Z,831.18
2018-03-17T12:01:02.696Z,831.13
2018-03-17T12:02:02.551Z,831.14
2018-03-17T12:03:02.425Z,831.17
2018-03-17T12:04:02.310Z,831.15
2018-03-17T12:05:02.173Z,831.10
2018-03-17T12:06:02.044Z,831.12
2018-03-17T12:07:01.918Z,831.04
2018-03-17T12:08:01.878Z,831.00
2018-03-17T12:09:01.666Z,830.96
2018-03-17T12:10:01.601Z,830.95
2018-03-17T12:11:01.416Z,830.88
2018-03-17T12:12:01.289Z,830.89
2018-03-17T12:13:01.169Z,830.83
2018-03-17T12:14:01.043Z,830.78
2018-03-17T12:15:00.910Z,830.81
2018-03-17T12:16:00.785Z,830.82
2018-03-17T12:17:00.670Z,830.82
2018-03-17T12:18:00.533Z,830.81
2018-03-17T12:19:00.406Z,830.84
2018-03-17T12:20:00.338Z,830.85
2018-03-17T12:21:00.216Z,830.83
2018-03-17T12:22:00.032Z,830.82
2018-03-17T12:22:59.903Z,830.82
2018-03-17T12:23:59.775Z,830.76
2018-03-17T12:24:59.801Z,830.76
2018-03-17T12:25:59.596Z,830.74
2018-03-17T12:26:59.400Z,830.74